sensor_id;sensor_type;location;lat;lon;timestamp;P1;durP1;ratioP1;P2;durP2;ratioP2
64351;SDS011;50680;52.626;-8.668;2023-10-08T00:00:07;30.30;;;14.80;;
64351;SDS011;50680;52.626;-8.668;2023-10-08T00:02:55;27.92;;;16.70;;
64351;SDS011;50680;52.626;-8.668;2023-10-08T00:05:22;33.38;;;16.52;;
64351;SDS011;50680;52.626;-8.668;2023-10-08T00:07:49;31.42;;;16.30;;
64351;SDS011;50680;52.626;-8.668;2023-10-08T00:10:17;34.95;;;16.58;;
64351;SDS011;50680;52.626;-8.668;2023-10-08T00:12:45;31.27;;;16.25;;
64351;SDS011;50680;52.626;-8.668;2023-10-08T00:15:14;31.40;;;16.63;;
64351;SDS011;50680;52.626;-8.668;2023-10-08T00:17:41;31.42;;;17.92;;
64351;SDS011;50680;52.626;-8.668;2023-10-08T00:20:12;36.55;;;17.65;;
64351;SDS011;50680;52.626;-8.668;2023-10-08T00:22:52;33.28;;;18.23;;
64351;SDS011;50680;52.626;-8.668;2023-10-08T00:25:22;31.10;;;17.52;;
64351;SDS011;50680;52.626;-8.668;2023-10-08T00:27:50;40.38;;;20.48;;
64351;SDS011;50680;52.626;-8.668;2023-10-08T00:30:17;34.78;;;18.92;;
64351;SDS011;50680;52.626;-8.668;2023-10-08T00:32:44;42.35;;;21.30;;
64351;SDS011;50680;52.626;-8.668;2023-10-08T00:35:12;48.40;;;25.25;;
64351;SDS011;50680;52.626;-8.668;2023-10-08T00:37:40;43.00;;;23.88;;
64351;SDS011;50680;52.626;-8.668;2023-10-08T00:40:07;31.92;;;19.15;;
64351;SDS011;50680;52.626;-8.668;2023-10-08T00:42:40;31.73;;;18.55;;
64351;SDS011;50680;52.626;-8.668;2023-10-08T00:45:12;34.58;;;19.10;;
64351;SDS011;50680;52.626;-8.668;2023-10-08T00:47:45;33.85;;;19.23;;
64351;SDS011;50680;52.626;-8.668;2023-10-08T00:50:13;31.73;;;17.92;;
64351;SDS011;50680;52.626;-8.668;2023-10-08T00:52:47;33.55;;;18.88;;
64351;SDS011;50680;52.626;-8.668;2023-10-08T00:55:36;38.05;;;20.13;;
64351;SDS011;50680;52.626;-8.668;2023-10-08T00:58:04;33.20;;;19.08;;
64351;SDS011;50680;52.626;-8.668;2023-10-08T01:00:51;30.38;;;17.55;;
64351;SDS011;50680;52.626;-8.668;2023-10-08T01:03:23;36.33;;;19.27;;
64351;SDS011;50680;52.626;-8.668;2023-10-08T01:05:54;37.40;;;19.90;;
64351;SDS011;50680;52.626;-8.668;2023-10-08T01:08:22;37.60;;;19.17;;
64351;SDS011;50680;52.626;-8.668;2023-10-08T01:11:17;34.30;;;17.35;;
64351;SDS011;50680;52.626;-8.668;2023-10-08T01:14:08;35.58;;;18.55;;
64351;SDS011;50680;52.626;-8.668;2023-10-08T01:16:35;34.88;;;19.55;;
64351;SDS011;50680;52.626;-8.668;2023-10-08T01:19:03;31.42;;;17.35;;
64351;SDS011;50680;52.626;-8.668;2023-10-08T01:21:29;34.42;;;17.10;;
64351;SDS011;50680;52.626;-8.668;2023-10-08T01:24:08;40.83;;;15.95;;
64351;SDS011;50680;52.626;-8.668;2023-10-08T01:26:37;31.30;;;15.95;;
64351;SDS011;50680;52.626;-8.668;2023-10-08T01:29:10;30.83;;;15.00;;
64351;SDS011;50680;52.626;-8.668;2023-10-08T01:31:46;27.40;;;14.90;;
64351;SDS011;50680;52.626;-8.668;2023-10-08T01:34:15;29.85;;;16.90;;
64351;SDS011;50680;52.626;-8.668;2023-10-08T01:36:43;29.27;;;15.10;;
64351;SDS011;50680;52.626;-8.668;2023-10-08T01:39:11;31.25;;;15.73;;
64351;SDS011;50680;52.626;-8.668;2023-10-08T01:41:43;32.10;;;15.77;;
64351;SDS011;50680;52.626;-8.668;2023-10-08T01:44:11;29.27;;;15.68;;
64351;SDS011;50680;52.626;-8.668;2023-10-08T01:46:38;28.90;;;15.70;;
64351;SDS011;50680;52.626;-8.668;2023-10-08T01:49:08;38.25;;;18.65;;
64351;SDS011;50680;52.626;-8.668;2023-10-08T01:51:41;33.33;;;17.38;;
64351;SDS011;50680;52.626;-8.668;2023-10-08T01:54:13;27.40;;;15.25;;
64351;SDS011;50680;52.626;-8.668;2023-10-08T01:56:41;34.95;;;17.27;;
64351;SDS011;50680;52.626;-8.668;2023-10-08T01:59:12;35.38;;;17.95;;
64351;SDS011;50680;52.626;-8.668;2023-10-08T02:01:43;30.90;;;16.20;;
64351;SDS011;50680;52.626;-8.668;2023-10-08T02:04:12;25.40;;;15.90;;
64351;SDS011;50680;52.626;-8.668;2023-10-08T02:06:43;28.48;;;15.88;;
64351;SDS011;50680;52.626;-8.668;2023-10-08T02:09:13;36.28;;;16.30;;
64351;SDS011;50680;52.626;-8.668;2023-10-08T02:11:42;30.13;;;16.80;;
64351;SDS011;50680;52.626;-8.668;2023-10-08T02:14:17;37.72;;;19.65;;
64351;SDS011;50680;52.626;-8.668;2023-10-08T02:16:45;39.10;;;21.67;;
64351;SDS011;50680;52.626;-8.668;2023-10-08T02:19:12;32.90;;;16.58;;
64351;SDS011;50680;52.626;-8.668;2023-10-08T02:21:46;35.03;;;16.70;;
64351;SDS011;50680;52.626;-8.668;2023-10-08T02:24:13;27.45;;;15.88;;
64351;SDS011;50680;52.626;-8.668;2023-10-08T02:26:40;33.25;;;15.80;;
64351;SDS011;50680;52.626;-8.668;2023-10-08T02:29:08;29.52;;;15.63;;
64351;SDS011;50680;52.626;-8.668;2023-10-08T02:31:39;28.50;;;16.58;;
64351;SDS011;50680;52.626;-8.668;2023-10-08T02:34:10;33.10;;;18.35;;
64351;SDS011;50680;52.626;-8.668;2023-10-08T02:36:39;35.47;;;18.10;;
64351;SDS011;50680;52.626;-8.668;2023-10-08T02:39:14;25.02;;;16.27;;
64351;SDS011;50680;52.626;-8.668;2023-10-08T02:41:49;26.77;;;16.33;;
64351;SDS011;50680;52.626;-8.668;2023-10-08T02:44:16;30.83;;;16.50;;
64351;SDS011;50680;52.626;-8.668;2023-10-08T02:46:44;32.67;;;16.88;;
64351;SDS011;50680;52.626;-8.668;2023-10-08T02:49:14;32.38;;;17.33;;
64351;SDS011;50680;52.626;-8.668;2023-10-08T02:51:53;24.02;;;15.48;;
64351;SDS011;50680;52.626;-8.668;2023-10-08T02:54:22;31.20;;;16.63;;
64351;SDS011;50680;52.626;-8.668;2023-10-08T02:56:59;29.95;;;16.70;;
64351;SDS011;50680;52.626;-8.668;2023-10-08T02:59:29;29.83;;;17.15;;
64351;SDS011;50680;52.626;-8.668;2023-10-08T03:02:06;28.38;;;17.25;;
64351;SDS011;50680;52.626;-8.668;2023-10-08T03:04:40;30.15;;;17.58;;
64351;SDS011;50680;52.626;-8.668;2023-10-08T03:07:16;33.72;;;18.02;;
64351;SDS011;50680;52.626;-8.668;2023-10-08T03:10:00;35.65;;;17.38;;
64351;SDS011;50680;52.626;-8.668;2023-10-08T03:12:32;28.67;;;15.73;;
64351;SDS011;50680;52.626;-8.668;2023-10-08T03:15:00;30.17;;;16.60;;
64351;SDS011;50680;52.626;-8.668;2023-10-08T03:17:42;36.38;;;18.65;;
64351;SDS011;50680;52.626;-8.668;2023-10-08T03:20:16;31.90;;;18.40;;
64351;SDS011;50680;52.626;-8.668;2023-10-08T03:23:02;37.50;;;19.10;;
64351;SDS011;50680;52.626;-8.668;2023-10-08T03:25:32;33.45;;;19.83;;
64351;SDS011;50680;52.626;-8.668;2023-10-08T03:28:08;32.17;;;18.73;;
64351;SDS011;50680;52.626;-8.668;2023-10-08T03:30:35;33.00;;;19.20;;
64351;SDS011;50680;52.626;-8.668;2023-10-08T03:33:14;29.02;;;17.58;;
64351;SDS011;50680;52.626;-8.668;2023-10-08T03:35:49;32.90;;;18.20;;
64351;SDS011;50680;52.626;-8.668;2023-10-08T03:38:21;31.83;;;17.55;;
64351;SDS011;50680;52.626;-8.668;2023-10-08T03:41:11;30.08;;;18.33;;
64351;SDS011;50680;52.626;-8.668;2023-10-08T03:43:43;26.60;;;15.75;;
64351;SDS011;50680;52.626;-8.668;2023-10-08T03:46:20;32.97;;;18.20;;
64351;SDS011;50680;52.626;-8.668;2023-10-08T03:48:49;32.92;;;18.05;;
64351;SDS011;50680;52.626;-8.668;2023-10-08T03:51:18;34.60;;;17.73;;
64351;SDS011;50680;52.626;-8.668;2023-10-08T03:53:47;31.20;;;16.88;;
64351;SDS011;50680;52.626;-8.668;2023-10-08T03:56:33;32.30;;;17.90;;
64351;SDS011;50680;52.626;-8.668;2023-10-08T03:59:03;31.08;;;17.60;;
64351;SDS011;50680;52.626;-8.668;2023-10-08T04:01:40;25.05;;;15.20;;
64351;SDS011;50680;52.626;-8.668;2023-10-08T04:04:09;29.85;;;16.75;;
64351;SDS011;50680;52.626;-8.668;2023-10-08T04:06:41;35.58;;;18.30;;
64351;SDS011;50680;52.626;-8.668;2023-10-08T04:09:16;32.75;;;16.75;;
64351;SDS011;50680;52.626;-8.668;2023-10-08T04:11:52;33.17;;;16.75;;
64351;SDS011;50680;52.626;-8.668;2023-10-08T04:14:25;32.25;;;16.92;;
64351;SDS011;50680;52.626;-8.668;2023-10-08T04:16:54;32.92;;;17.60;;
64351;SDS011;50680;52.626;-8.668;2023-10-08T04:19:21;27.90;;;17.70;;
64351;SDS011;50680;52.626;-8.668;2023-10-08T04:21:54;30.90;;;17.35;;
64351;SDS011;50680;52.626;-8.668;2023-10-08T04:24:22;33.22;;;17.50;;
64351;SDS011;50680;52.626;-8.668;2023-10-08T04:27:02;28.20;;;16.42;;
64351;SDS011;50680;52.626;-8.668;2023-10-08T04:29:32;29.53;;;16.13;;
64351;SDS011;50680;52.626;-8.668;2023-10-08T04:32:03;33.13;;;17.90;;
64351;SDS011;50680;52.626;-8.668;2023-10-08T04:34:34;30.10;;;16.73;;
64351;SDS011;50680;52.626;-8.668;2023-10-08T04:37:02;31.38;;;17.95;;
64351;SDS011;50680;52.626;-8.668;2023-10-08T04:39:39;38.72;;;19.17;;
64351;SDS011;50680;52.626;-8.668;2023-10-08T04:42:14;38.25;;;19.33;;
64351;SDS011;50680;52.626;-8.668;2023-10-08T04:44:52;37.22;;;18.40;;
64351;SDS011;50680;52.626;-8.668;2023-10-08T04:47:21;33.03;;;17.73;;
64351;SDS011;50680;52.626;-8.668;2023-10-08T04:50:00;35.08;;;16.55;;
64351;SDS011;50680;52.626;-8.668;2023-10-08T04:52:31;37.05;;;17.55;;
64351;SDS011;50680;52.626;-8.668;2023-10-08T04:55:01;30.33;;;18.30;;
64351;SDS011;50680;52.626;-8.668;2023-10-08T04:57:39;28.85;;;16.40;;
64351;SDS011;50680;52.626;-8.668;2023-10-08T05:00:11;40.97;;;18.70;;
64351;SDS011;50680;52.626;-8.668;2023-10-08T05:02:41;38.25;;;18.58;;
64351;SDS011;50680;52.626;-8.668;2023-10-08T05:05:20;36.33;;;19.98;;
64351;SDS011;50680;52.626;-8.668;2023-10-08T05:07:46;32.30;;;18.13;;
64351;SDS011;50680;52.626;-8.668;2023-10-08T05:10:14;30.90;;;17.48;;
64351;SDS011;50680;52.626;-8.668;2023-10-08T05:12:50;30.50;;;16.67;;
64351;SDS011;50680;52.626;-8.668;2023-10-08T05:15:38;35.35;;;16.65;;
64351;SDS011;50680;52.626;-8.668;2023-10-08T05:18:23;37.38;;;18.50;;
64351;SDS011;50680;52.626;-8.668;2023-10-08T05:21:04;40.08;;;20.42;;
64351;SDS011;50680;52.626;-8.668;2023-10-08T05:23:51;47.13;;;22.55;;
64351;SDS011;50680;52.626;-8.668;2023-10-08T05:26:40;54.92;;;26.38;;
64351;SDS011;50680;52.626;-8.668;2023-10-08T05:29:16;45.08;;;22.60;;
64351;SDS011;50680;52.626;-8.668;2023-10-08T05:32:01;40.35;;;20.38;;
64351;SDS011;50680;52.626;-8.668;2023-10-08T05:34:46;39.15;;;18.85;;
64351;SDS011;50680;52.626;-8.668;2023-10-08T05:37:39;54.72;;;28.83;;
64351;SDS011;50680;52.626;-8.668;2023-10-08T05:40:09;40.15;;;20.20;;
64351;SDS011;50680;52.626;-8.668;2023-10-08T05:42:48;39.47;;;21.33;;
64351;SDS011;50680;52.626;-8.668;2023-10-08T05:45:27;40.85;;;18.20;;
64351;SDS011;50680;52.626;-8.668;2023-10-08T05:48:01;34.25;;;17.48;;
64351;SDS011;50680;52.626;-8.668;2023-10-08T05:50:39;36.88;;;17.90;;
64351;SDS011;50680;52.626;-8.668;2023-10-08T05:53:21;42.53;;;19.08;;
64351;SDS011;50680;52.626;-8.668;2023-10-08T05:56:08;41.95;;;18.02;;
64351;SDS011;50680;52.626;-8.668;2023-10-08T05:58:55;36.45;;;18.10;;
64351;SDS011;50680;52.626;-8.668;2023-10-08T06:01:41;43.17;;;18.27;;
64351;SDS011;50680;52.626;-8.668;2023-10-08T06:04:12;38.70;;;17.10;;
64351;SDS011;50680;52.626;-8.668;2023-10-08T06:07:08;37.15;;;16.70;;
64351;SDS011;50680;52.626;-8.668;2023-10-08T06:09:49;32.05;;;16.67;;
64351;SDS011;50680;52.626;-8.668;2023-10-08T06:12:40;36.43;;;18.70;;
64351;SDS011;50680;52.626;-8.668;2023-10-08T06:15:16;34.70;;;16.83;;
64351;SDS011;50680;52.626;-8.668;2023-10-08T06:17:54;37.08;;;16.83;;
64351;SDS011;50680;52.626;-8.668;2023-10-08T06:20:33;29.17;;;14.48;;
64351;SDS011;50680;52.626;-8.668;2023-10-08T06:23:01;35.85;;;16.60;;
64351;SDS011;50680;52.626;-8.668;2023-10-08T06:25:33;34.25;;;16.58;;
64351;SDS011;50680;52.626;-8.668;2023-10-08T06:28:15;36.03;;;16.25;;
64351;SDS011;50680;52.626;-8.668;2023-10-08T06:30:49;41.72;;;17.45;;
64351;SDS011;50680;52.626;-8.668;2023-10-08T06:33:20;50.22;;;20.55;;
64351;SDS011;50680;52.626;-8.668;2023-10-08T06:35:48;46.28;;;20.10;;
64351;SDS011;50680;52.626;-8.668;2023-10-08T06:38:34;46.88;;;19.27;;
64351;SDS011;50680;52.626;-8.668;2023-10-08T06:41:02;42.88;;;19.58;;
64351;SDS011;50680;52.626;-8.668;2023-10-08T06:43:49;32.38;;;15.93;;
64351;SDS011;50680;52.626;-8.668;2023-10-08T06:46:16;41.38;;;18.38;;
64351;SDS011;50680;52.626;-8.668;2023-10-08T06:48:48;51.75;;;21.23;;
64351;SDS011;50680;52.626;-8.668;2023-10-08T06:51:22;63.25;;;22.65;;
64351;SDS011;50680;52.626;-8.668;2023-10-08T06:53:51;60.03;;;22.40;;
64351;SDS011;50680;52.626;-8.668;2023-10-08T06:56:20;62.35;;;22.77;;
64351;SDS011;50680;52.626;-8.668;2023-10-08T06:58:47;66.15;;;23.17;;
64351;SDS011;50680;52.626;-8.668;2023-10-08T07:01:16;61.78;;;22.63;;
64351;SDS011;50680;52.626;-8.668;2023-10-08T07:03:48;63.05;;;22.00;;
64351;SDS011;50680;52.626;-8.668;2023-10-08T07:06:18;65.07;;;24.38;;
64351;SDS011;50680;52.626;-8.668;2023-10-08T07:08:58;59.33;;;23.25;;
64351;SDS011;50680;52.626;-8.668;2023-10-08T07:11:26;72.90;;;24.20;;
64351;SDS011;50680;52.626;-8.668;2023-10-08T07:13:53;70.75;;;23.15;;
64351;SDS011;50680;52.626;-8.668;2023-10-08T07:16:21;57.60;;;22.02;;
64351;SDS011;50680;52.626;-8.668;2023-10-08T07:18:49;59.70;;;20.40;;
64351;SDS011;50680;52.626;-8.668;2023-10-08T07:21:19;57.63;;;22.15;;
64351;SDS011;50680;52.626;-8.668;2023-10-08T07:23:55;56.80;;;19.95;;
64351;SDS011;50680;52.626;-8.668;2023-10-08T07:26:24;48.15;;;19.40;;
64351;SDS011;50680;52.626;-8.668;2023-10-08T07:28:52;48.80;;;19.13;;
64351;SDS011;50680;52.626;-8.668;2023-10-08T07:31:21;46.53;;;18.85;;
64351;SDS011;50680;52.626;-8.668;2023-10-08T07:33:51;45.40;;;17.77;;
64351;SDS011;50680;52.626;-8.668;2023-10-08T07:36:23;39.97;;;16.40;;
64351;SDS011;50680;52.626;-8.668;2023-10-08T07:38:51;37.65;;;17.40;;
64351;SDS011;50680;52.626;-8.668;2023-10-08T07:41:19;33.05;;;16.42;;
64351;SDS011;50680;52.626;-8.668;2023-10-08T07:43:47;37.05;;;16.10;;
64351;SDS011;50680;52.626;-8.668;2023-10-08T07:46:25;43.78;;;22.52;;
64351;SDS011;50680;52.626;-8.668;2023-10-08T07:48:53;34.92;;;16.42;;
64351;SDS011;50680;52.626;-8.668;2023-10-08T07:51:21;32.35;;;15.23;;
64351;SDS011;50680;52.626;-8.668;2023-10-08T07:53:48;31.17;;;14.95;;
64351;SDS011;50680;52.626;-8.668;2023-10-08T07:56:23;30.20;;;13.35;;
64351;SDS011;50680;52.626;-8.668;2023-10-08T07:58:53;28.55;;;13.65;;
64351;SDS011;50680;52.626;-8.668;2023-10-08T08:01:24;41.15;;;13.95;;
64351;SDS011;50680;52.626;-8.668;2023-10-08T08:03:51;24.58;;;13.35;;
64351;SDS011;50680;52.626;-8.668;2023-10-08T08:06:18;22.90;;;13.13;;
64351;SDS011;50680;52.626;-8.668;2023-10-08T08:08:45;27.08;;;13.43;;
64351;SDS011;50680;52.626;-8.668;2023-10-08T08:11:12;23.73;;;13.38;;
64351;SDS011;50680;52.626;-8.668;2023-10-08T08:13:39;32.15;;;15.32;;
64351;SDS011;50680;52.626;-8.668;2023-10-08T08:16:13;23.23;;;13.93;;
64351;SDS011;50680;52.626;-8.668;2023-10-08T08:21:12;22.33;;;12.88;;
64351;SDS011;50680;52.626;-8.668;2023-10-08T08:23:43;27.60;;;14.63;;
64351;SDS011;50680;52.626;-8.668;2023-10-08T08:26:21;28.63;;;15.43;;
64351;SDS011;50680;52.626;-8.668;2023-10-08T08:28:53;22.15;;;15.38;;
64351;SDS011;50680;52.626;-8.668;2023-10-08T08:31:26;18.00;;;10.85;;
64351;SDS011;50680;52.626;-8.668;2023-10-08T08:33:58;16.95;;;11.15;;
64351;SDS011;50680;52.626;-8.668;2023-10-08T08:36:30;22.42;;;13.93;;
64351;SDS011;50680;52.626;-8.668;2023-10-08T08:38:58;21.92;;;13.45;;
64351;SDS011;50680;52.626;-8.668;2023-10-08T08:41:25;18.40;;;10.60;;
64351;SDS011;50680;52.626;-8.668;2023-10-08T08:43:53;18.98;;;10.23;;
64351;SDS011;50680;52.626;-8.668;2023-10-08T08:46:31;16.38;;;10.45;;
64351;SDS011;50680;52.626;-8.668;2023-10-08T08:49:02;16.92;;;10.25;;
64351;SDS011;50680;52.626;-8.668;2023-10-08T08:51:31;15.32;;;9.40;;
64351;SDS011;50680;52.626;-8.668;2023-10-08T08:53:58;15.07;;;9.27;;
64351;SDS011;50680;52.626;-8.668;2023-10-08T08:56:27;18.83;;;10.05;;
64351;SDS011;50680;52.626;-8.668;2023-10-08T08:58:57;18.92;;;10.18;;
64351;SDS011;50680;52.626;-8.668;2023-10-08T09:01:26;13.27;;;9.02;;
64351;SDS011;50680;52.626;-8.668;2023-10-08T09:04:00;14.32;;;9.32;;
64351;SDS011;50680;52.626;-8.668;2023-10-08T09:06:28;18.10;;;8.55;;
64351;SDS011;50680;52.626;-8.668;2023-10-08T09:08:55;12.57;;;8.35;;
64351;SDS011;50680;52.626;-8.668;2023-10-08T09:11:40;11.10;;;9.02;;
64351;SDS011;50680;52.626;-8.668;2023-10-08T09:14:09;12.38;;;7.95;;
64351;SDS011;50680;52.626;-8.668;2023-10-08T09:16:39;10.38;;;6.75;;
64351;SDS011;50680;52.626;-8.668;2023-10-08T09:19:07;9.30;;;6.70;;
64351;SDS011;50680;52.626;-8.668;2023-10-08T09:21:38;7.70;;;6.15;;
64351;SDS011;50680;52.626;-8.668;2023-10-08T09:24:06;7.95;;;5.60;;
64351;SDS011;50680;52.626;-8.668;2023-10-08T09:26:38;8.93;;;5.88;;
64351;SDS011;50680;52.626;-8.668;2023-10-08T09:29:06;8.73;;;5.72;;
64351;SDS011;50680;52.626;-8.668;2023-10-08T09:31:34;10.82;;;6.00;;
64351;SDS011;50680;52.626;-8.668;2023-10-08T09:34:04;7.07;;;5.20;;
64351;SDS011;50680;52.626;-8.668;2023-10-08T09:36:31;7.65;;;6.03;;
64351;SDS011;50680;52.626;-8.668;2023-10-08T09:39:02;7.28;;;5.68;;
64351;SDS011;50680;52.626;-8.668;2023-10-08T09:41:33;9.32;;;5.60;;
64351;SDS011;50680;52.626;-8.668;2023-10-08T09:44:01;5.65;;;4.93;;
64351;SDS011;50680;52.626;-8.668;2023-10-08T09:46:31;7.53;;;4.75;;
64351;SDS011;50680;52.626;-8.668;2023-10-08T09:49:01;4.80;;;4.27;;
64351;SDS011;50680;52.626;-8.668;2023-10-08T09:51:33;5.18;;;4.40;;
64351;SDS011;50680;52.626;-8.668;2023-10-08T09:54:05;4.90;;;4.45;;
64351;SDS011;50680;52.626;-8.668;2023-10-08T09:56:41;5.03;;;4.47;;
64351;SDS011;50680;52.626;-8.668;2023-10-08T09:59:11;4.20;;;3.67;;
64351;SDS011;50680;52.626;-8.668;2023-10-08T10:01:41;4.55;;;4.15;;
64351;SDS011;50680;52.626;-8.668;2023-10-08T10:04:22;4.20;;;3.78;;
64351;SDS011;50680;52.626;-8.668;2023-10-08T10:06:55;5.43;;;4.30;;
64351;SDS011;50680;52.626;-8.668;2023-10-08T10:09:25;6.68;;;3.88;;
64351;SDS011;50680;52.626;-8.668;2023-10-08T10:11:54;4.97;;;3.97;;
64351;SDS011;50680;52.626;-8.668;2023-10-08T10:14:21;6.28;;;3.80;;
64351;SDS011;50680;52.626;-8.668;2023-10-08T10:20:10;4.13;;;3.70;;
64351;SDS011;50680;52.626;-8.668;2023-10-08T10:22:42;4.53;;;4.03;;
64351;SDS011;50680;52.626;-8.668;2023-10-08T10:25:12;5.75;;;3.47;;
64351;SDS011;50680;52.626;-8.668;2023-10-08T10:30:30;4.88;;;3.53;;
64351;SDS011;50680;52.626;-8.668;2023-10-08T10:33:00;3.80;;;3.40;;
64351;SDS011;50680;52.626;-8.668;2023-10-08T10:35:28;6.07;;;3.60;;
64351;SDS011;50680;52.626;-8.668;2023-10-08T10:37:55;5.45;;;3.63;;
64351;SDS011;50680;52.626;-8.668;2023-10-08T10:40:30;5.38;;;3.22;;
64351;SDS011;50680;52.626;-8.668;2023-10-08T10:43:06;4.85;;;3.53;;
64351;SDS011;50680;52.626;-8.668;2023-10-08T10:45:35;7.85;;;3.58;;
64351;SDS011;50680;52.626;-8.668;2023-10-08T10:48:03;4.32;;;3.55;;
64351;SDS011;50680;52.626;-8.668;2023-10-08T10:50:46;3.88;;;3.35;;
64351;SDS011;50680;52.626;-8.668;2023-10-08T10:53:33;3.78;;;2.80;;
64351;SDS011;50680;52.626;-8.668;2023-10-08T10:56:24;6.88;;;3.20;;
64351;SDS011;50680;52.626;-8.668;2023-10-08T10:59:00;3.28;;;2.97;;
64351;SDS011;50680;52.626;-8.668;2023-10-08T11:01:44;4.50;;;3.58;;
64351;SDS011;50680;52.626;-8.668;2023-10-08T11:04:13;3.58;;;3.28;;
64351;SDS011;50680;52.626;-8.668;2023-10-08T11:06:43;3.50;;;3.20;;
64351;SDS011;50680;52.626;-8.668;2023-10-08T11:09:14;5.28;;;3.25;;
64351;SDS011;50680;52.626;-8.668;2023-10-08T11:11:43;4.72;;;3.10;;
64351;SDS011;50680;52.626;-8.668;2023-10-08T11:14:21;3.83;;;3.40;;
64351;SDS011;50680;52.626;-8.668;2023-10-08T11:16:48;5.30;;;3.20;;
64351;SDS011;50680;52.626;-8.668;2023-10-08T11:19:15;4.88;;;3.03;;
64351;SDS011;50680;52.626;-8.668;2023-10-08T11:21:52;4.00;;;3.00;;
64351;SDS011;50680;52.626;-8.668;2023-10-08T11:24:33;3.83;;;3.28;;
64351;SDS011;50680;52.626;-8.668;2023-10-08T11:27:01;3.20;;;2.90;;
64351;SDS011;50680;52.626;-8.668;2023-10-08T11:29:44;4.53;;;3.40;;
64351;SDS011;50680;52.626;-8.668;2023-10-08T11:32:16;3.83;;;3.00;;
64351;SDS011;50680;52.626;-8.668;2023-10-08T11:34:47;3.40;;;2.88;;
64351;SDS011;50680;52.626;-8.668;2023-10-08T11:37:30;3.28;;;2.95;;
64351;SDS011;50680;52.626;-8.668;2023-10-08T11:40:00;7.05;;;3.10;;
64351;SDS011;50680;52.626;-8.668;2023-10-08T11:42:39;3.58;;;2.72;;
64351;SDS011;50680;52.626;-8.668;2023-10-08T11:47:53;3.92;;;2.75;;
64351;SDS011;50680;52.626;-8.668;2023-10-08T11:50:29;3.85;;;2.80;;
64351;SDS011;50680;52.626;-8.668;2023-10-08T11:53:02;3.10;;;2.80;;
64351;SDS011;50680;52.626;-8.668;2023-10-08T11:55:32;3.17;;;2.65;;
64351;SDS011;50680;52.626;-8.668;2023-10-08T11:58:06;3.50;;;2.47;;
64351;SDS011;50680;52.626;-8.668;2023-10-08T12:00:42;3.03;;;2.63;;
64351;SDS011;50680;52.626;-8.668;2023-10-08T12:03:14;3.15;;;2.60;;
64351;SDS011;50680;52.626;-8.668;2023-10-08T12:05:49;2.60;;;2.30;;
64351;SDS011;50680;52.626;-8.668;2023-10-08T12:08:26;3.45;;;2.60;;
64351;SDS011;50680;52.626;-8.668;2023-10-08T12:10:54;6.60;;;2.25;;
64351;SDS011;50680;52.626;-8.668;2023-10-08T12:13:22;2.58;;;2.30;;
64351;SDS011;50680;52.626;-8.668;2023-10-08T12:15:55;2.45;;;1.92;;
64351;SDS011;50680;52.626;-8.668;2023-10-08T12:18:41;3.25;;;2.10;;
64351;SDS011;50680;52.626;-8.668;2023-10-08T12:21:13;4.65;;;2.15;;
64351;SDS011;50680;52.626;-8.668;2023-10-08T12:23:41;2.08;;;1.98;;
64351;SDS011;50680;52.626;-8.668;2023-10-08T12:26:17;3.10;;;1.65;;
64351;SDS011;50680;52.626;-8.668;2023-10-08T12:28:46;2.42;;;1.90;;
64351;SDS011;50680;52.626;-8.668;2023-10-08T12:31:15;2.33;;;1.50;;
64351;SDS011;50680;52.626;-8.668;2023-10-08T12:33:46;1.92;;;1.50;;
64351;SDS011;50680;52.626;-8.668;2023-10-08T12:36:13;1.92;;;1.65;;
64351;SDS011;50680;52.626;-8.668;2023-10-08T12:38:43;1.63;;;1.52;;
64351;SDS011;50680;52.626;-8.668;2023-10-08T12:41:14;2.10;;;1.75;;
64351;SDS011;50680;52.626;-8.668;2023-10-08T12:43:43;4.28;;;1.85;;
64351;SDS011;50680;52.626;-8.668;2023-10-08T12:46:12;4.05;;;1.80;;
64351;SDS011;50680;52.626;-8.668;2023-10-08T12:48:45;2.47;;;1.63;;
64351;SDS011;50680;52.626;-8.668;2023-10-08T12:51:15;3.60;;;1.40;;
64351;SDS011;50680;52.626;-8.668;2023-10-08T12:53:42;1.73;;;1.40;;
64351;SDS011;50680;52.626;-8.668;2023-10-08T12:56:17;1.80;;;1.63;;
64351;SDS011;50680;52.626;-8.668;2023-10-08T12:58:48;1.95;;;1.55;;
64351;SDS011;50680;52.626;-8.668;2023-10-08T13:01:15;2.15;;;1.55;;
64351;SDS011;50680;52.626;-8.668;2023-10-08T13:06:18;2.00;;;1.60;;
64351;SDS011;50680;52.626;-8.668;2023-10-08T13:08:49;2.05;;;1.50;;
64351;SDS011;50680;52.626;-8.668;2023-10-08T13:11:19;5.20;;;1.90;;
64351;SDS011;50680;52.626;-8.668;2023-10-08T13:13:52;2.78;;;1.80;;
64351;SDS011;50680;52.626;-8.668;2023-10-08T13:16:26;2.72;;;1.80;;
64351;SDS011;50680;52.626;-8.668;2023-10-08T13:18:58;1.95;;;1.35;;
64351;SDS011;50680;52.626;-8.668;2023-10-08T13:21:26;5.78;;;1.55;;
64351;SDS011;50680;52.626;-8.668;2023-10-08T13:23:55;2.08;;;1.60;;
64351;SDS011;50680;52.626;-8.668;2023-10-08T13:26:31;3.30;;;1.33;;
64351;SDS011;50680;52.626;-8.668;2023-10-08T13:28:58;4.03;;;1.50;;
64351;SDS011;50680;52.626;-8.668;2023-10-08T13:31:26;2.00;;;1.80;;
64351;SDS011;50680;52.626;-8.668;2023-10-08T13:33:54;1.80;;;1.40;;
64351;SDS011;50680;52.626;-8.668;2023-10-08T13:36:23;4.32;;;1.80;;
64351;SDS011;50680;52.626;-8.668;2023-10-08T13:38:51;3.50;;;1.77;;
64351;SDS011;50680;52.626;-8.668;2023-10-08T13:41:18;2.65;;;1.90;;
64351;SDS011;50680;52.626;-8.668;2023-10-08T13:43:46;2.22;;;1.60;;
64351;SDS011;50680;52.626;-8.668;2023-10-08T13:46:15;2.42;;;2.00;;
64351;SDS011;50680;52.626;-8.668;2023-10-08T13:48:47;4.05;;;1.55;;
64351;SDS011;50680;52.626;-8.668;2023-10-08T13:51:20;2.72;;;2.05;;
64351;SDS011;50680;52.626;-8.668;2023-10-08T13:53:56;5.28;;;1.77;;
64351;SDS011;50680;52.626;-8.668;2023-10-08T13:56:27;1.90;;;1.70;;
64351;SDS011;50680;52.626;-8.668;2023-10-08T14:04:13;2.00;;;1.80;;
64351;SDS011;50680;52.626;-8.668;2023-10-08T14:06:47;2.17;;;1.98;;
64351;SDS011;50680;52.626;-8.668;2023-10-08T14:09:14;3.10;;;2.15;;
64351;SDS011;50680;52.626;-8.668;2023-10-08T14:11:48;1.85;;;1.63;;
64351;SDS011;50680;52.626;-8.668;2023-10-08T14:14:19;1.98;;;1.50;;
64351;SDS011;50680;52.626;-8.668;2023-10-08T14:16:51;2.55;;;1.60;;
64351;SDS011;50680;52.626;-8.668;2023-10-08T14:19:26;2.70;;;1.65;;
64351;SDS011;50680;52.626;-8.668;2023-10-08T14:22:06;1.23;;;1.13;;
64351;SDS011;50680;52.626;-8.668;2023-10-08T14:24:35;1.65;;;1.50;;
64351;SDS011;50680;52.626;-8.668;2023-10-08T14:27:05;1.65;;;1.30;;
64351;SDS011;50680;52.626;-8.668;2023-10-08T14:29:42;2.50;;;1.63;;
64351;SDS011;50680;52.626;-8.668;2023-10-08T14:32:17;3.88;;;1.70;;
64351;SDS011;50680;52.626;-8.668;2023-10-08T14:34:44;2.55;;;1.60;;
64351;SDS011;50680;52.626;-8.668;2023-10-08T14:37:14;3.17;;;1.65;;
64351;SDS011;50680;52.626;-8.668;2023-10-08T14:40:00;1.90;;;1.80;;
64351;SDS011;50680;52.626;-8.668;2023-10-08T14:42:46;3.88;;;2.00;;
64351;SDS011;50680;52.626;-8.668;2023-10-08T14:45:42;1.95;;;1.38;;
64351;SDS011;50680;52.626;-8.668;2023-10-08T14:48:13;3.15;;;1.65;;
64351;SDS011;50680;52.626;-8.668;2023-10-08T14:50:40;2.50;;;1.50;;
64351;SDS011;50680;52.626;-8.668;2023-10-08T14:53:09;2.40;;;1.70;;
64351;SDS011;50680;52.626;-8.668;2023-10-08T14:55:36;4.35;;;1.80;;
64351;SDS011;50680;52.626;-8.668;2023-10-08T14:58:04;2.75;;;1.60;;
64351;SDS011;50680;52.626;-8.668;2023-10-08T15:00:36;3.67;;;1.90;;
64351;SDS011;50680;52.626;-8.668;2023-10-08T15:03:06;1.90;;;1.70;;
64351;SDS011;50680;52.626;-8.668;2023-10-08T15:05:33;5.22;;;1.70;;
64351;SDS011;50680;52.626;-8.668;2023-10-08T15:08:04;2.30;;;1.80;;